Time;durP1;ratioP1;P1;durP2;ratioP2;P2;SDS_P1;SDS_P2;PMS_P1;PMS_P2;Temp;Humidity;BMP_temperature;BMP_pressure;BME280_temperature;BME280_humidity;BME280_pressure;Samples;Min_cycle;Max_cycle;Signal;HPM_P1;HPM_P2
2023/04/14 00:01:21;;;;;;;5.77;2.13;;;;;;;8.54;67.10;99651.44;5025619;28;20385;-77
2023/04/14 00:03:46;;;;;;;5.67;2.17;;;;;;;8.34;67.73;99655.50;5025028;28;20410;-77
2023/04/14 00:06:12;;;;;;;6.57;2.30;;;;;;;8.48;67.22;99644.34;5018107;28;20462;-77
2023/04/14 00:08:37;;;;;;;6.90;2.17;;;;;;;8.52;67.09;99653.56;5031251;28;20869;-77
2023/04/14 00:11:02;;;;;;;5.60;2.00;;;;;;;8.62;67.08;99651.81;5026573;28;20404;-77
2023/04/14 00:13:27;;;;;;;6.80;2.07;;;;;;;8.62;66.97;99649.13;5014051;28;20401;-77
2023/04/14 00:15:54;;;;;;;7.40;2.58;;;;;;;8.37;67.02;99653.38;5028665;28;20431;-77
2023/04/14 00:18:19;;;;;;;5.90;2.22;;;;;;;8.49;66.74;99659.47;5017609;28;20401;-77
2023/04/14 00:20:46;;;;;;;5.90;1.90;;;;;;;8.48;66.90;99655.97;5027626;28;20791;-77
2023/04/14 00:23:11;;;;;;;6.65;2.17;;;;;;;8.23;68.02;99659.09;5023879;28;20421;-77
2023/04/14 00:25:36;;;;;;;4.83;2.40;;;;;;;8.27;68.13;99646.75;5020247;28;20429;-77
2023/04/14 00:28:02;;;;;;;7.30;2.23;;;;;;;8.47;67.92;99650.78;5015107;28;20393;-77
2023/04/14 00:30:28;;;;;;;10.07;2.30;;;;;;;8.49;67.23;99645.97;5028248;28;20792;-77
2023/04/14 00:32:53;;;;;;;6.27;1.93;;;;;;;8.57;67.14;99642.81;5022447;28;20789;-77
2023/04/14 00:35:18;;;;;;;4.30;2.17;;;;;;;8.58;67.06;99639.88;5026121;28;20406;-77
2023/04/14 00:37:43;;;;;;;4.83;1.67;;;;;;;8.56;67.10;99636.59;5017114;28;20412;-77
2023/04/14 00:40:12;;;;;;;5.87;2.37;;;;;;;8.57;66.89;99632.03;5028201;28;20401;-77
2023/04/14 00:42:45;;;;;;;3.15;1.70;;;;;;;8.57;66.84;99635.53;5020695;28;20417;-77
2023/04/14 00:45:11;;;;;;;4.80;1.88;;;;;;;8.53;67.25;99636.31;5020209;28;20411;-77
2023/04/14 00:47:38;;;;;;;7.28;1.83;;;;;;;8.52;67.20;99635.50;5013857;28;20412;-77
2023/04/14 00:50:04;;;;;;;3.80;1.42;;;;;;;8.51;66.96;99639.25;5028595;28;20424;-78
2023/04/14 00:52:31;;;;;;;5.68;1.63;;;;;;;8.54;66.96;99638.75;5021756;28;20418;-77
2023/04/14 00:54:57;;;;;;;8.45;2.22;;;;;;;8.54;66.96;99640.63;5020690;28;20475;-77
2023/04/14 00:57:24;;;;;;;2.50;1.83;;;;;;;8.53;67.29;99645.22;5029195;28;20403;-77
2023/04/14 00:59:49;;;;;;;5.33;1.90;;;;;;;8.48;67.47;99644.34;5016523;28;20448;-78
2023/04/14 01:02:15;;;;;;;6.30;2.20;;;;;;;8.48;67.41;99634.34;5025000;28;20399;-78
2023/04/14 01:04:41;;;;;;;7.25;2.13;;;;;;;8.51;67.08;99644.66;5024520;28;20460;-77
2023/04/14 01:07:06;;;;;;;3.28;1.63;;;;;;;8.53;67.03;99649.81;5017517;28;20821;-77
2023/04/14 01:09:31;;;;;;;5.83;1.87;;;;;;;8.50;66.79;99645.72;5028973;28;20476;-77
2023/04/14 01:12:07;;;;;;;4.83;1.50;;;;;;;8.34;67.15;99644.72;5019605;28;20394;-77
2023/04/14 01:15:07;;;;;;;3.85;1.60;;;;;;;8.17;67.53;99654.69;5028084;28;20400;-78
2023/04/14 01:17:42;;;;;;;2.55;2.00;;;;;;;8.09;67.90;99654.31;5012358;28;20397;-77
2023/04/14 01:20:31;;;;;;;6.40;1.95;;;;;;;8.07;67.68;99659.94;5037033;28;20395;-77
2023/04/14 01:23:10;;;;;;;7.10;1.67;;;;;;;8.07;67.84;99651.84;5031511;28;20404;-77
2023/04/14 01:25:54;;;;;;;7.75;2.33;;;;;;;8.09;68.15;99657.00;5027637;28;20420;-78
2023/04/14 01:29:00;;;;;;;6.95;2.03;;;;;;;8.12;67.77;99659.22;5019979;28;20887;-77
2023/04/14 01:31:28;;;;;;;4.30;1.92;;;;;;;8.03;67.99;99661.53;5029303;28;20407;-77
2023/04/14 01:34:05;;;;;;;5.78;1.80;;;;;;;7.98;68.05;99666.84;5020913;28;20457;-78
2023/04/14 01:36:46;;;;;;;4.57;1.73;;;;;;;7.90;68.17;99667.25;5027424;28;20431;-77
2023/04/14 01:39:17;;;;;;;6.00;2.40;;;;;;;7.83;68.17;99662.03;5031949;28;20406;-77
2023/04/14 01:41:48;;;;;;;5.72;2.08;;;;;;;7.77;68.12;99673.78;5027551;28;20404;-77
2023/04/14 01:44:15;;;;;;;7.72;2.05;;;;;;;7.67;68.25;99668.22;5021135;28;20396;-77
2023/04/14 01:46:43;;;;;;;3.78;1.70;;;;;;;7.66;68.69;99671.19;5028789;28;20812;-77
2023/04/14 01:49:10;;;;;;;5.43;1.90;;;;;;;7.59;68.71;99668.66;5026713;28;20393;-77
2023/04/14 01:51:37;;;;;;;5.80;2.17;;;;;;;7.55;68.79;99674.75;5012545;28;20865;-77
2023/04/14 01:54:04;;;;;;;4.05;1.52;;;;;;;7.50;68.84;99678.22;5037425;28;20876;-77
2023/04/14 01:56:31;;;;;;;4.18;1.67;;;;;;;7.49;68.77;99675.75;5013181;28;20401;-77
2023/04/14 01:58:58;;;;;;;8.93;2.90;;;;;;;7.57;68.33;99675.34;5027465;28;20400;-77
2023/04/14 02:01:26;;;;;;;5.30;1.85;;;;;;;7.49;68.58;99684.66;5021196;28;20383;-77
2023/04/14 02:03:52;;;;;;;5.15;2.60;;;;;;;7.48;68.89;99684.88;5034342;28;20892;-77
2023/04/14 02:06:20;;;;;;;5.40;1.73;;;;;;;7.55;68.89;99699.03;5028022;28;20457;-77
2023/04/14 02:08:46;;;;;;;5.30;1.85;;;;;;;7.55;69.16;99691.75;5012685;28;20687;-77
2023/04/14 02:11:13;;;;;;;4.40;1.98;;;;;;;7.52;68.97;99696.81;5020758;28;20395;-77
2023/04/14 02:13:41;;;;;;;4.07;1.63;;;;;;;7.54;69.11;99705.50;5019220;28;20408;-77
2023/04/14 02:16:09;;;;;;;3.30;1.67;;;;;;;7.57;68.95;99710.41;5028138;28;20573;-77
2023/04/14 02:18:37;;;;;;;4.15;1.85;;;;;;;7.59;68.98;99711.78;5011923;28;20407;-77
2023/04/14 02:21:03;;;;;;;4.50;1.80;;;;;;;7.53;68.33;99709.25;5030357;28;20979;-77
2023/04/14 02:23:30;;;;;;;4.03;1.73;;;;;;;7.57;68.72;99710.41;5027155;28;20432;-77
2023/04/14 02:26:01;;;;;;;14.90;2.40;;;;;;;7.64;68.61;99719.94;5016102;28;20429;-77
2023/04/14 02:28:32;;;;;;;6.97;2.30;;;;;;;7.68;68.38;99721.09;5016923;28;20767;-77
2023/04/14 02:31:00;;;;;;;7.65;1.95;;;;;;;7.71;68.22;99725.19;5020846;28;20447;-77
2023/04/14 02:33:33;;;;;;;8.32;2.20;;;;;;;7.68;68.14;99723.81;5027124;28;20731;-77
2023/04/14 02:36:20;;;;;;;12.05;5.10;;;;;;;7.39;68.79;99727.59;5025939;28;20383;-77
2023/04/14 02:38:55;;;;;;;7.35;2.00;;;;;;;7.22;69.35;99726.72;5024911;28;20387;-77
2023/04/14 02:41:27;;;;;;;7.40;3.42;;;;;;;7.19;69.14;99728.03;5021410;28;20436;-77
2023/04/14 02:44:12;;;;;;;7.25;2.05;;;;;;;7.12;68.88;99737.31;5016367;28;20403;-77
2023/04/14 02:46:44;;;;;;;5.10;1.95;;;;;;;6.91;69.80;99738.81;5024553;28;20419;-77
2023/04/14 02:49:13;;;;;;;6.05;2.25;;;;;;;6.77;69.79;99735.56;5021647;28;20512;-77
2023/04/14 02:51:40;;;;;;;4.13;2.13;;;;;;;6.77;70.32;99732.88;5031584;28;20405;-77
2023/04/14 02:54:06;;;;;;;4.32;2.28;;;;;;;6.68;70.27;99737.00;5021180;28;20751;-77
2023/04/14 02:56:32;;;;;;;8.50;1.87;;;;;;;6.74;70.06;99733.34;5025689;28;20443;-77
2023/04/14 02:58:58;;;;;;;3.33;2.03;;;;;;;6.52;70.91;99736.91;5026600;28;20398;-77
2023/04/14 03:01:25;;;;;;;5.47;1.92;;;;;;;6.43;71.63;99731.03;5017892;28;20428;-77
2023/04/14 03:03:52;;;;;;;6.50;2.25;;;;;;;6.34;71.59;99734.31;5020420;28;20387;-77
2023/04/14 03:06:18;;;;;;;3.67;2.00;;;;;;;6.55;71.59;99731.81;5030416;28;20417;-77
2023/04/14 03:08:46;;;;;;;4.90;1.90;;;;;;;6.72;70.38;99723.84;5027970;28;20418;-77
2023/04/14 03:11:13;;;;;;;6.35;1.90;;;;;;;6.68;70.76;99723.53;5018808;28;20393;-77
2023/04/14 03:13:41;;;;;;;5.03;1.92;;;;;;;6.75;70.44;99734.97;5030409;28;20407;-77
2023/04/14 03:16:08;;;;;;;6.80;1.80;;;;;;;6.62;71.04;99723.63;5023103;28;20490;-77
2023/04/14 03:18:35;;;;;;;4.30;1.80;;;;;;;6.66;70.85;99717.53;5022161;28;20392;-77
2023/04/14 03:21:01;;;;;;;4.30;2.13;;;;;;;6.54;71.33;99722.13;5030853;28;20456;-77
2023/04/14 03:23:27;;;;;;;7.63;2.65;;;;;;;6.55;71.27;99721.06;5045624;28;20396;-77
2023/04/14 03:25:54;;;;;;;9.13;3.83;;;;;;;6.58;70.98;99722.47;5022647;28;20542;-77
2023/04/14 03:28:23;;;;;;;6.82;2.10;;;;;;;6.56;70.87;99722.72;5029016;28;20784;-77
2023/04/14 03:30:51;;;;;;;6.00;2.67;;;;;;;6.52;71.03;99728.81;5029763;28;20394;-77
2023/04/14 03:33:22;;;;;;;5.65;2.00;;;;;;;6.38;71.43;99732.81;5014204;28;20401;-77
2023/04/14 03:35:49;;;;;;;6.60;1.95;;;;;;;6.37;72.18;99734.66;5022830;28;20399;-77
2023/04/14 03:38:15;;;;;;;5.93;2.53;;;;;;;6.46;71.31;99735.94;5020561;28;20445;-77
2023/04/14 03:40:43;;;;;;;5.55;1.85;;;;;;;6.46;71.52;99729.72;5029599;28;20469;-77
2023/04/14 03:43:11;;;;;;;6.37;1.90;;;;;;;6.63;71.26;99727.97;5018018;28;20491;-77
2023/04/14 03:45:39;;;;;;;8.88;2.30;;;;;;;6.71;71.04;99733.00;5028360;28;20445;-77
2023/04/14 03:48:09;;;;;;;7.30;2.17;;;;;;;6.90;70.15;99728.25;5021677;28;20497;-77
2023/04/14 03:50:40;;;;;;;5.90;1.60;;;;;;;6.88;70.04;99735.78;5020084;28;20789;-77
2023/04/14 03:53:09;;;;;;;6.68;2.20;;;;;;;6.81;70.37;99727.81;5028572;28;20487;-77
2023/04/14 03:55:36;;;;;;;6.63;1.80;;;;;;;6.67;70.38;99724.56;5038328;28;20422;-77
2023/04/14 03:58:07;;;;;;;4.68;1.95;;;;;;;6.53;70.62;99735.81;5017940;28;20397;-77
2023/04/14 04:00:33;;;;;;;9.00;2.90;;;;;;;6.47;70.98;99729.50;5027974;28;20426;-77
2023/04/14 04:03:00;;;;;;;6.28;2.42;;;;;;;6.53;70.90;99731.25;5017994;28;20486;-77
2023/04/14 04:05:26;;;;;;;6.22;1.92;;;;;;;6.54;70.99;99734.78;5021505;28;20812;-77
2023/04/14 04:07:52;;;;;;;6.43;2.10;;;;;;;6.61;70.70;99738.97;5024813;28;20754;-77
2023/04/14 04:10:20;;;;;;;4.10;2.30;;;;;;;6.64;71.21;99735.81;5029873;28;20505;-77
2023/04/14 04:12:50;;;;;;;5.45;1.80;;;;;;;6.77;70.73;99734.72;5028227;28;20464;-77
2023/04/14 04:15:18;;;;;;;5.85;2.22;;;;;;;6.84;70.18;99740.00;5018755;28;20785;-77
2023/04/14 04:17:46;;;;;;;8.13;2.63;;;;;;;6.92;70.18;99737.72;5024660;28;20395;-77
2023/04/14 04:20:13;;;;;;;3.83;2.13;;;;;;;7.01;70.05;99733.63;5031127;28;20777;-77
2023/04/14 04:22:40;;;;;;;9.27;2.13;;;;;;;7.02;70.36;99735.25;5026557;28;20392;-77
2023/04/14 04:25:09;;;;;;;4.82;1.95;;;;;;;6.98;70.13;99735.97;5013352;28;20413;-77
2023/04/14 04:27:34;;;;;;;4.97;2.33;;;;;;;6.94;70.64;99734.81;4982377;28;1728781;-77
2023/04/14 04:30:00;;;;;;;9.75;2.42;;;;;;;6.93;70.31;99735.84;5031082;28;20415;-77
2023/04/14 04:32:26;;;;;;;13.73;2.50;;;;;;;6.95;70.21;99741.84;5019383;28;20395;-77
2023/04/14 04:34:51;;;;;;;7.50;2.33;;;;;;;6.88;70.12;99738.47;5023804;28;20403;-77
2023/04/14 04:37:20;;;;;;;10.33;2.67;;;;;;;6.75;70.58;99739.56;5026830;28;20774;-77
2023/04/14 04:39:47;;;;;;;8.07;2.03;;;;;;;6.74;71.20;99744.13;5031640;28;20435;-77
2023/04/14 04:42:12;;;;;;;7.25;2.85;;;;;;;6.84;70.66;99746.19;5028310;28;20461;-77
2023/04/14 04:44:38;;;;;;;7.87;2.63;;;;;;;6.85;70.34;99747.03;5028582;28;20401;-77
2023/04/14 04:47:03;;;;;;;6.30;2.57;;;;;;;6.85;70.96;99753.19;5021472;28;20469;-77
2023/04/14 04:49:28;;;;;;;8.80;2.63;;;;;;;6.90;70.53;99747.94;5044729;28;20816;-77
2023/04/14 04:51:55;;;;;;;9.43;2.40;;;;;;;6.85;70.62;99750.50;5022343;28;20406;-77
2023/04/14 04:54:20;;;;;;;9.85;2.20;;;;;;;6.85;71.07;99741.63;5054721;28;20490;-77
2023/04/14 04:56:46;;;;;;;13.73;2.77;;;;;;;6.87;70.90;99740.34;5035589;28;20479;-77
2023/04/14 04:59:11;;;;;;;5.50;1.90;;;;;;;6.85;70.95;99747.81;5043238;28;20541;-77
2023/04/14 05:01:36;;;;;;;4.63;2.47;;;;;;;6.84;71.27;99742.69;5027465;28;20438;-77
2023/04/14 05:04:02;;;;;;;7.87;2.23;;;;;;;6.86;71.23;99748.63;5031784;28;20439;-77
2023/04/14 05:06:27;;;;;;;6.63;2.25;;;;;;;6.92;71.05;99745.81;5020841;28;20495;-77
2023/04/14 05:08:54;;;;;;;5.27;2.53;;;;;;;6.95;70.50;99752.63;5026150;28;20510;-77
2023/04/14 05:11:19;;;;;;;5.80;2.03;;;;;;;6.89;70.82;99753.53;5055325;28;20394;-77
2023/04/14 05:13:45;;;;;;;9.02;2.40;;;;;;;6.90;70.95;99755.19;5041226;28;20397;-77
2023/04/14 05:16:17;;;;;;;6.45;2.40;;;;;;;6.86;70.95;99754.84;5032348;28;20425;-77
2023/04/14 05:18:42;;;;;;;6.87;2.70;;;;;;;6.87;70.92;99761.88;5028049;28;20397;-77
2023/04/14 05:21:12;;;;;;;6.97;3.10;;;;;;;6.90;71.02;99764.09;5043655;28;20445;-77
2023/04/14 05:23:39;;;;;;;8.48;3.15;;;;;;;6.90;71.35;99769.47;5030684;28;20398;-77
2023/04/14 05:26:05;;;;;;;6.57;3.30;;;;;;;7.01;70.71;99765.94;5032058;28;20569;-77
2023/04/14 05:28:31;;;;;;;11.20;4.55;;;;;;;7.06;70.49;99774.13;5033684;28;20497;-77
2023/04/14 05:30:56;;;;;;;4.70;2.83;;;;;;;7.06;70.66;99776.00;5029506;28;20385;-77
2023/04/14 05:33:21;;;;;;;7.20;2.87;;;;;;;7.10;70.61;99772.59;5029922;28;20415;-77
2023/04/14 05:35:49;;;;;;;6.45;2.58;;;;;;;7.00;70.74;99769.69;5030967;28;20409;-77
2023/04/14 05:38:15;;;;;;;7.32;2.50;;;;;;;7.01;70.84;99767.81;5026686;28;20415;-77
2023/04/14 05:40:41;;;;;;;7.57;2.47;;;;;;;7.08;71.02;99772.00;5024803;28;20434;-77
2023/04/14 05:43:06;;;;;;;4.83;2.23;;;;;;;7.15;70.48;99774.56;5039253;28;20428;-77
2023/04/14 05:45:31;;;;;;;7.83;3.50;;;;;;;7.14;70.35;99773.75;5029262;28;20458;-77
2023/04/14 05:47:57;;;;;;;9.30;2.47;;;;;;;7.15;70.49;99780.75;5024368;28;20461;-77
2023/04/14 05:50:22;;;;;;;7.65;2.75;;;;;;;7.17;70.49;99788.63;5030272;28;20391;-77
2023/04/14 05:52:48;;;;;;;7.80;2.70;;;;;;;7.17;70.72;99786.75;5031567;28;20537;-75
2023/04/14 05:55:13;;;;;;;10.63;2.75;;;;;;;7.16;70.77;99781.59;5029244;28;20474;-75
2023/04/14 05:57:38;;;;;;;8.23;2.17;;;;;;;7.22;70.57;99778.75;5025969;28;20395;-75
2023/04/14 06:00:06;;;;;;;10.53;2.50;;;;;;;7.29;70.57;99782.13;5027322;28;20830;-77
2023/04/14 06:02:31;;;;;;;5.25;2.17;;;;;;;7.41;70.01;99782.06;5020759;28;20524;-77
2023/04/14 06:04:58;;;;;;;5.30;2.23;;;;;;;7.55;69.92;99782.59;5012058;28;20484;-77
2023/04/14 06:07:23;;;;;;;6.18;2.22;;;;;;;7.56;69.35;99782.38;5022263;28;20398;-77
2023/04/14 06:09:49;;;;;;;9.93;3.27;;;;;;;7.61;69.66;99781.63;5030118;28;20392;-77
2023/04/14 06:12:14;;;;;;;4.50;2.63;;;;;;;7.56;70.36;99782.38;5029844;28;20395;-77
2023/04/14 06:14:40;;;;;;;7.67;3.10;;;;;;;7.55;70.20;99780.72;5026366;28;20405;-77
2023/04/14 06:17:05;;;;;;;8.60;2.90;;;;;;;7.64;70.59;99789.28;5026969;28;20416;-77
2023/04/14 06:19:33;;;;;;;7.07;2.67;;;;;;;7.76;70.57;99787.31;5032266;28;20414;-78
2023/04/14 06:21:58;;;;;;;7.00;2.53;;;;;;;7.76;70.13;99785.44;5021057;28;21095;-78
2023/04/14 06:24:23;;;;;;;8.30;2.80;;;;;;;7.81;70.31;99782.81;5028659;28;20486;-77
2023/04/14 06:26:49;;;;;;;10.20;2.90;;;;;;;7.88;70.54;99784.56;5025965;28;20435;-76
2023/04/14 06:29:14;;;;;;;7.20;2.83;;;;;;;7.93;70.42;99785.47;5030202;28;20413;-76
2023/04/14 06:31:39;;;;;;;7.20;2.50;;;;;;;8.02;70.18;99791.28;5031447;28;20882;-74
2023/04/14 06:34:08;;;;;;;6.37;2.60;;;;;;;8.03;70.81;99782.94;5031611;28;20403;-76
2023/04/14 06:36:33;;;;;;;7.37;2.40;;;;;;;8.02;71.12;99784.00;5040518;28;20457;-75
2023/04/14 06:38:59;;;;;;;2.80;1.80;;;;;;;8.08;70.96;99785.72;5026471;28;20487;-75
2023/04/14 06:41:24;;;;;;;7.50;2.70;;;;;;;8.13;71.08;99785.00;5021736;28;20878;-77
2023/04/14 06:43:50;;;;;;;9.32;2.30;;;;;;;8.19;70.44;99781.31;5041812;28;20423;-74
2023/04/14 06:46:16;;;;;;;5.72;1.83;;;;;;;8.31;70.39;99782.06;5025419;28;20416;-74
2023/04/14 06:48:43;;;;;;;6.40;2.00;;;;;;;8.47;69.92;99775.00;5050692;28;20417;-75
2023/04/14 06:51:11;;;;;;;9.63;2.42;;;;;;;8.54;70.14;99765.69;5063040;28;20430;-76
2023/04/14 06:53:38;;;;;;;9.82;2.53;;;;;;;8.58;70.01;99774.09;5041637;28;20459;-75
2023/04/14 06:56:05;;;;;;;9.50;2.30;;;;;;;8.74;69.86;99770.53;5025485;28;20385;-75
2023/04/14 06:58:31;;;;;;;6.47;2.40;;;;;;;8.81;69.23;99772.00;5014597;28;20389;-75
2023/04/14 07:00:57;;;;;;;6.88;1.77;;;;;;;8.85;69.24;99773.16;5010542;28;20399;-75
2023/04/14 07:03:23;;;;;;;6.57;2.47;;;;;;;8.85;69.53;99775.84;5035630;28;20452;-76
2023/04/14 07:05:48;;;;;;;8.10;2.50;;;;;;;8.91;69.70;99768.63;5045522;28;20415;-75
2023/04/14 07:08:14;;;;;;;5.80;2.60;;;;;;;9.01;69.74;99754.41;5021794;28;20400;-74
2023/04/14 07:10:40;;;;;;;8.13;2.50;;;;;;;9.09;69.78;99762.88;5023944;28;20494;-74
2023/04/14 07:13:05;;;;;;;8.18;2.75;;;;;;;9.10;69.93;99758.31;5026560;28;20730;-75
2023/04/14 07:15:30;;;;;;;6.87;2.40;;;;;;;9.18;69.53;99764.09;5022017;28;20423;-74
2023/04/14 07:17:55;;;;;;;5.10;2.17;;;;;;;9.25;69.80;99761.19;5030989;28;20413;-75
2023/04/14 07:20:21;;;;;;;4.30;2.07;;;;;;;9.31;69.43;99760.19;5042650;28;20413;-76
2023/04/14 07:22:46;;;;;;;9.23;2.42;;;;;;;9.31;68.81;99752.91;5038143;28;20407;-75
2023/04/14 07:25:11;;;;;;;7.03;2.13;;;;;;;9.34;69.00;99746.97;5032549;28;20854;-75
2023/04/14 07:27:37;;;;;;;7.27;1.97;;;;;;;9.39;68.67;99743.50;5034463;28;20955;-76
2023/04/14 07:30:02;;;;;;;7.63;2.60;;;;;;;9.43;68.64;99746.50;5032424;28;20546;-77
2023/04/14 07:32:27;;;;;;;9.50;2.50;;;;;;;9.48;68.69;99747.41;5031539;28;20403;-77
2023/04/14 07:34:53;;;;;;;9.30;2.20;;;;;;;9.61;68.31;99727.22;5017012;28;20465;-77
2023/04/14 07:37:19;;;;;;;8.80;2.50;;;;;;;9.69;68.10;99734.88;5030032;28;20415;-77
2023/04/14 07:39:45;;;;;;;5.43;1.92;;;;;;;9.76;68.05;99736.31;5024508;28;20422;-77
2023/04/14 07:42:10;;;;;;;6.90;2.03;;;;;;;9.81;67.92;99730.13;5022672;28;20406;-77
2023/04/14 07:44:35;;;;;;;7.20;2.27;;;;;;;9.91;67.75;99733.72;5027260;28;20418;-77
2023/04/14 07:47:01;;;;;;;6.27;1.93;;;;;;;10.05;67.34;99731.41;5016462;28;20496;-77
2023/04/14 07:49:26;;;;;;;8.20;2.30;;;;;;;10.10;67.17;99722.50;5023803;28;20426;-77
2023/04/14 07:51:51;;;;;;;7.57;2.10;;;;;;;10.14;66.64;99735.28;5029526;28;20887;-77
2023/04/14 07:54:17;;;;;;;8.63;1.93;;;;;;;10.27;66.21;99718.59;5016464;28;20413;-76
2023/04/14 07:56:43;;;;;;;7.57;2.65;;;;;;;10.37;65.53;99726.00;5026929;28;20402;-77
2023/04/14 07:59:08;;;;;;;11.40;2.07;;;;;;;10.53;64.53;99726.88;5029281;28;20407;-76
2023/04/14 08:01:33;;;;;;;6.43;2.00;;;;;;;10.58;64.34;99725.00;5044165;28;20876;-77
2023/04/14 08:03:58;;;;;;;9.93;2.70;;;;;;;10.49;64.36;99725.78;5033754;28;20432;-76
2023/04/14 08:06:26;;;;;;;7.23;2.10;;;;;;;10.50;64.85;99724.69;5041057;28;20483;-77
2023/04/14 08:08:52;;;;;;;7.80;2.05;;;;;;;10.61;64.41;99726.38;5027697;28;20434;-77
2023/04/14 08:11:17;;;;;;;5.07;2.03;;;;;;;10.82;64.10;99728.94;5021565;28;20766;-76
2023/04/14 08:13:43;;;;;;;5.60;2.33;;;;;;;11.29;63.10;99734.28;5031460;28;20387;-76
2023/04/14 08:16:08;;;;;;;12.40;2.80;;;;;;;11.35;62.07;99726.97;5015976;28;20389;-77
2023/04/14 08:18:33;;;;;;;6.43;2.10;;;;;;;11.37;62.30;99728.31;5024577;28;20413;-77
2023/04/14 08:20:59;;;;;;;9.70;3.13;;;;;;;11.33;62.56;99738.06;5024781;28;20424;-77
2023/04/14 08:23:24;;;;;;;6.88;2.15;;;;;;;11.36;62.61;99731.31;5017237;28;20484;-77
2023/04/14 08:25:49;;;;;;;9.20;1.97;;;;;;;11.40;62.08;99732.38;5011633;28;20832;-76
2023/04/14 08:28:15;;;;;;;2.97;1.98;;;;;;;11.50;61.61;99729.69;5027518;28;20397;-76
2023/04/14 08:30:40;;;;;;;5.27;2.20;;;;;;;11.63;61.64;99729.19;5020424;28;20391;-76
2023/04/14 08:33:05;;;;;;;6.80;2.08;;;;;;;11.59;61.68;99740.84;5025772;28;20415;-76
2023/04/14 08:35:31;;;;;;;5.87;2.43;;;;;;;11.56;61.67;99739.47;5025832;28;20403;-77
2023/04/14 08:37:59;;;;;;;8.57;1.87;;;;;;;11.65;61.17;99735.16;5041192;28;20415;-77
2023/04/14 08:40:35;;;;;;;9.48;2.20;;;;;;;11.72;60.97;99735.72;5020965;28;20439;-78
2023/04/14 08:43:01;;;;;;;5.63;2.28;;;;;;;11.80;60.36;99728.97;5037118;28;20449;-77
2023/04/14 08:45:29;;;;;;;6.40;2.17;;;;;;;11.90;60.16;99734.41;5041195;28;20535;-76
2023/04/14 08:47:57;;;;;;;4.53;1.80;;;;;;;12.04;59.54;99735.50;5047100;28;20397;-76
2023/04/14 08:50:25;;;;;;;8.15;2.10;;;;;;;12.17;58.85;99728.69;5036770;28;20914;-76
2023/04/14 08:52:55;;;;;;;5.28;1.80;;;;;;;12.33;58.76;99730.31;5020221;28;20447;-77
2023/04/14 08:55:22;;;;;;;4.03;1.65;;;;;;;12.60;58.22;99722.66;5028707;28;20424;-76
2023/04/14 08:57:49;;;;;;;6.47;1.67;;;;;;;12.88;56.39;99721.19;5017839;28;20462;-77
2023/04/14 09:00:15;;;;;;;3.50;1.67;;;;;;;13.09;56.25;99720.06;5023837;28;20772;-77
2023/04/14 09:02:41;;;;;;;5.35;1.42;;;;;;;13.31;55.50;99706.88;5023230;28;20414;-76
2023/04/14 09:05:07;;;;;;;7.72;2.00;;;;;;;13.35;54.95;99709.84;5016433;28;20888;-76
2023/04/14 09:07:33;;;;;;;7.10;1.98;;;;;;;13.59;55.19;99715.44;5030780;28;20414;-77
2023/04/14 09:09:59;;;;;;;6.13;1.50;;;;;;;13.74;54.11;99705.22;5035293;28;20407;-76
2023/04/14 09:12:26;;;;;;;4.47;1.70;;;;;;;14.06;53.29;99706.63;5021281;28;20418;-76
2023/04/14 09:14:52;;;;;;;5.00;1.75;;;;;;;14.50;52.51;99702.66;5027863;28;20482;-76
2023/04/14 09:17:17;;;;;;;4.63;1.88;;;;;;;14.82;51.94;99696.56;5031168;28;20414;-77
2023/04/14 09:19:44;;;;;;;5.70;3.17;;;;;;;14.88;51.31;99700.06;5021205;28;20407;-77
2023/04/14 09:22:09;;;;;;;373.45;160.48;;;;;;;14.91;51.12;99700.31;5036774;28;20476;-77
2023/04/14 09:24:35;;;;;;;1999.90;910.78;;;;;;;15.15;50.45;99694.78;5016005;28;20892;-77
2023/04/14 09:27:04;;;;;;;1999.90;999.90;;;;;;;15.40;49.52;99694.47;5044360;28;20498;-77
2023/04/14 09:29:31;;;;;;;1999.90;999.90;;;;;;;15.63;48.82;99690.06;5018080;28;20782;-76
2023/04/14 09:31:56;;;;;;;1999.90;999.90;;;;;;;15.76;47.97;99692.03;5037011;28;20389;-77
2023/04/14 09:34:22;;;;;;;1999.90;999.90;;;;;;;15.98;48.42;99696.88;5026353;28;20409;-77
2023/04/14 09:37:06;;;;;;;1999.90;999.90;;;;;;;16.34;47.85;99695.13;5022698;28;20405;-77
2023/04/14 09:39:45;;;;;;;1999.90;999.90;;;;;;;16.19;47.04;99689.94;5020315;28;20445;-76
2023/04/14 09:42:11;;;;;;;1353.15;566.95;;;;;;;16.58;46.40;99700.47;5029117;28;20403;-77
2023/04/14 09:44:54;;;;;;;401.00;357.97;;;;;;;17.15;44.06;99690.84;5040781;28;20415;-76
2023/04/14 09:47:21;;;;;;;3.22;1.92;;;;;;;18.01;42.27;99695.13;5012295;28;20896;-77
2023/04/14 09:49:57;;;;;;;3.47;1.20;;;;;;;19.09;40.06;99690.03;5032581;28;20421;-76
2023/04/14 09:52:36;;;;;;;5.72;1.30;;;;;;;20.17;37.51;99689.94;5031938;28;20909;-76
2023/04/14 09:55:05;;;;;;;6.18;1.55;;;;;;;20.52;36.35;99687.91;5018528;28;20391;-76
2023/04/14 09:57:31;;;;;;;4.60;1.80;;;;;;;20.91;36.20;99697.78;5021598;28;20419;-77
2023/04/14 09:59:56;;;;;;;3.75;1.45;;;;;;;21.25;36.00;99680.28;5019027;28;20985;-77
2023/04/14 10:02:24;;;;;;;3.53;1.50;;;;;;;21.70;34.37;99686.75;5029586;28;20395;-76
2023/04/14 10:05:03;;;;;;;1.75;1.20;;;;;;;22.74;31.80;99687.34;5019792;28;20404;-77
2023/04/14 10:07:29;;;;;;;1.52;1.42;;;;;;;23.99;30.95;99687.28;5029859;28;20409;-77
2023/04/14 10:09:55;;;;;;;5.05;1.60;;;;;;;24.74;29.40;99688.13;5028186;28;20750;-77
2023/04/14 10:12:20;;;;;;;2.57;1.27;;;;;;;24.64;29.17;99685.91;5038812;28;20457;-77
2023/04/14 15:50:37;;;;;;;3.90;0.85;;;;;;;19.86;26.06;99333.81;5065864;27;20465;-75
2023/04/14 15:53:02;;;;;;;6.10;1.47;;;;;;;20.12;26.38;99335.25;5080304;28;20415;-75
2023/04/14 15:55:27;;;;;;;3.97;0.73;;;;;;;20.15;26.63;99340.06;5078924;28;20869;-76
2023/04/14 15:57:52;;;;;;;2.47;0.70;;;;;;;20.15;26.35;99336.53;5082861;28;20414;-75
2023/04/14 16:00:18;;;;;;;1.73;0.82;;;;;;;20.09;26.56;99329.59;5078480;28;20430;-75
2023/04/14 16:02:44;;;;;;;8.37;1.60;;;;;;;19.82;26.80;99341.13;5081632;28;20399;-78
2023/04/14 16:05:10;;;;;;;4.65;1.13;;;;;;;19.46;27.30;99344.41;5071120;28;20806;-77
2023/04/14 16:07:35;;;;;;;7.07;1.27;;;;;;;19.16;27.43;99341.53;5057775;28;20885;-77
2023/04/14 16:10:03;;;;;;;2.70;0.90;;;;;;;19.21;26.48;99337.00;5083669;28;20471;-73
2023/04/14 16:12:29;;;;;;;3.10;0.73;;;;;;;19.44;26.57;99339.22;5074131;28;20766;-73
2023/04/14 16:14:55;;;;;;;6.68;0.85;;;;;;;19.43;27.27;99336.81;5079970;28;20399;-73
2023/04/14 16:17:20;;;;;;;1.65;0.70;;;;;;;19.31;26.96;99337.47;5063288;28;20405;-73
2023/04/14 16:19:46;;;;;;;2.55;0.68;;;;;;;19.20;26.92;99343.66;5073265;28;20407;-73
2023/04/14 16:22:11;;;;;;;1.47;0.80;;;;;;;18.99;27.37;99346.31;5084687;28;20384;-73
2023/04/14 16:24:38;;;;;;;4.10;0.50;;;;;;;18.95;27.52;99342.59;5076241;28;21616;-72
2023/04/14 16:27:03;;;;;;;1.60;0.60;;;;;;;18.97;27.43;99340.31;5075721;28;20380;-75
2023/04/14 16:29:29;;;;;;;1.10;0.90;;;;;;;18.85;27.62;99343.75;5070373;28;20745;-75
2023/04/14 16:31:54;;;;;;;0.70;0.70;;;;;;;18.75;27.60;99355.06;5087108;28;20395;-74
2023/04/14 16:34:19;;;;;;;3.07;0.70;;;;;;;18.56;28.33;99352.69;5079421;28;20454;-74
2023/04/14 16:36:45;;;;;;;4.20;0.93;;;;;;;18.69;29.10;99359.13;5078806;28;20383;-74
2023/04/14 16:39:11;;;;;;;2.65;0.80;;;;;;;18.49;29.38;99348.75;5082721;28;20414;-74
2023/04/14 16:41:36;;;;;;;1.20;0.80;;;;;;;18.22;30.44;99351.81;5071888;28;20377;-75
2023/04/14 16:44:01;;;;;;;3.00;1.07;;;;;;;18.19;30.12;99349.72;5082217;28;20790;-75
2023/04/14 16:46:26;;;;;;;5.47;1.07;;;;;;;18.27;30.41;99351.69;5078905;28;20389;-75
